Time;durP1;ratioP1;P1;durP2;ratioP2;P2;SDS_P1;SDS_P2;PMS_P1;PMS_P2;Temp;Humidity;BMP_temperature;BMP_pressure;BME280_temperature;BME280_humidity;BME280_pressure;Samples;Min_cycle;Max_cycle;Signal;HPM_P1;HPM_P2
2021/12/06 00:01:56;;;;;;;64.70;28.73;;;;;;;;;;5046313;28;20525;-82
2021/12/06 00:04:25;;;;;;;53.58;27.45;;;;;;;;;;5050907;28;20028;-82
2021/12/06 00:06:53;;;;;;;55.00;27.73;;;;;;;;;;5035280;28;20029;-83
2021/12/06 00:09:21;;;;;;;58.03;30.00;;;;;;;;;;5054256;28;20029;-84
2021/12/06 00:11:50;;;;;;;58.47;26.70;;;;;;;;;;5032733;28;20391;-82
2021/12/06 00:14:16;;;;;;;55.63;27.75;;;;;;;;;;5061860;28;20025;-82
2021/12/06 00:16:43;;;;;;;54.72;27.88;;;;;;;;;;5055107;28;20038;-82
2021/12/06 00:19:09;;;;;;;57.35;27.50;;;;;;;;;;5049779;28;20021;-82
2021/12/06 00:21:35;;;;;;;62.70;26.80;;;;;;;;;;5047329;28;20029;-81
2021/12/06 00:24:02;;;;;;;54.30;28.35;;;;;;;;;;5060378;28;20016;-82
2021/12/06 00:26:28;;;;;;;63.30;28.08;;;;;;;;;;5034500;28;20034;-82
2021/12/06 00:28:58;;;;;;;51.67;28.73;;;;;;;;;;5050714;28;20425;-84
2021/12/06 00:31:25;;;;;;;55.47;28.38;;;;;;;;;;5040499;28;20022;-82
2021/12/06 00:33:58;;;;;;;61.80;26.48;;;;;;;;;;5056094;28;20036;-81
2021/12/06 00:36:30;;;;;;;65.55;30.02;;;;;;;;;;5060738;28;20049;-81
2021/12/06 00:38:56;;;;;;;64.93;34.03;;;;;;;;;;5064831;28;20052;-83
2021/12/06 00:41:23;;;;;;;68.30;35.00;;;;;;;;;;5062869;28;20028;-82
2021/12/06 00:43:50;;;;;;;70.60;32.60;;;;;;;;;;5048499;28;20075;-82
2021/12/06 00:46:16;;;;;;;62.08;31.10;;;;;;;;;;5057852;28;20024;-81
2021/12/06 00:48:42;;;;;;;55.05;30.80;;;;;;;;;;5060558;28;20067;-82
2021/12/06 00:51:11;;;;;;;57.53;29.25;;;;;;;;;;5058202;28;20090;-83
2021/12/06 00:53:37;;;;;;;63.35;31.02;;;;;;;;;;5048326;28;20028;-81
2021/12/06 00:56:04;;;;;;;67.53;31.55;;;;;;;;;;5049328;28;20459;-81
2021/12/06 00:58:30;;;;;;;66.95;30.17;;;;;;;;;;5066051;28;20104;-82
2021/12/06 01:00:57;;;;;;;56.00;32.20;;;;;;;;;;5070096;28;20062;-82
2021/12/06 01:03:28;;;;;;;70.25;31.27;;;;;;;;;;5076452;28;20107;-84
2021/12/06 01:05:55;;;;;;;66.72;30.40;;;;;;;;;;5064039;28;20036;-80
2021/12/06 01:08:22;;;;;;;63.63;31.23;;;;;;;;;;5071630;28;20048;-80
2021/12/06 01:10:49;;;;;;;65.63;29.80;;;;;;;;;;5051491;28;20028;-81
2021/12/06 01:13:15;;;;;;;69.00;31.00;;;;;;;;;;5051640;28;20531;-81
2021/12/06 01:15:42;;;;;;;66.90;31.77;;;;;;;;;;5048172;28;20028;-80
2021/12/06 01:18:10;;;;;;;57.78;30.08;;;;;;;;;;5061789;28;20017;-82
2021/12/06 01:20:48;;;;;;;71.68;33.17;;;;;;;;;;5039420;28;20487;-82
2021/12/06 01:23:17;;;;;;;72.13;32.13;;;;;;;;;;5067985;28;20048;-83
2021/12/06 01:25:58;;;;;;;66.68;31.77;;;;;;;;;;5065835;28;20024;-82
2021/12/06 01:29:02;;;;;;;63.30;30.67;;;;;;;;;;5067843;28;20040;-82
2021/12/06 01:39:24;;;;;;;83.53;38.67;;;;;;;;;;5063277;28;20116;-82
2021/12/06 01:41:52;;;;;;;110.85;51.22;;;;;;;;;;5068704;28;20131;-82
2021/12/06 01:44:26;;;;;;;105.55;48.58;;;;;;;;;;5049587;28;20031;-84
2021/12/06 01:46:54;;;;;;;129.90;58.42;;;;;;;;;;5067877;28;20033;-82
2021/12/06 01:49:22;;;;;;;121.85;58.55;;;;;;;;;;5069495;28;20082;-81
2021/12/06 01:51:51;;;;;;;125.40;59.78;;;;;;;;;;5065782;28;20557;-81
2021/12/06 01:54:18;;;;;;;118.95;56.05;;;;;;;;;;5064379;28;20024;-81
2021/12/06 01:56:45;;;;;;;103.85;51.83;;;;;;;;;;5069399;28;20043;-83
2021/12/06 01:59:12;;;;;;;113.72;51.45;;;;;;;;;;5051382;28;20108;-81
2021/12/06 02:01:39;;;;;;;105.35;52.65;;;;;;;;;;5069578;28;20064;-84
2021/12/06 02:04:05;;;;;;;111.68;53.03;;;;;;;;;;5070945;28;20055;-84
2021/12/06 02:06:32;;;;;;;108.75;54.95;;;;;;;;;;5064375;28;20056;-80
2021/12/06 02:08:59;;;;;;;118.95;56.78;;;;;;;;;;5066655;28;20063;-84
2021/12/06 02:11:27;;;;;;;123.95;65.22;;;;;;;;;;5071247;28;20391;-81
2021/12/06 02:14:22;;;;;;;140.18;78.95;;;;;;;;;;5069301;28;20056;-82
2021/12/06 02:16:57;;;;;;;146.75;78.22;;;;;;;;;;5063828;28;20504;-84
2021/12/06 02:19:30;;;;;;;151.65;79.20;;;;;;;;;;5064366;28;20028;-81
2021/12/06 02:21:56;;;;;;;142.35;76.80;;;;;;;;;;5067363;28;20332;-83
2021/12/06 02:24:23;;;;;;;134.25;80.25;;;;;;;;;;5064609;28;20416;-79
2021/12/06 02:26:51;;;;;;;135.23;76.80;;;;;;;;;;5064299;28;20031;-82
2021/12/06 02:29:18;;;;;;;135.02;73.65;;;;;;;;;;5046536;28;20029;-81
2021/12/06 02:31:44;;;;;;;127.55;65.75;;;;;;;;;;5044121;28;20040;-82
2021/12/06 02:34:10;;;;;;;116.57;65.57;;;;;;;;;;5044333;28;20020;-82
2021/12/06 02:36:37;;;;;;;143.27;69.22;;;;;;;;;;5063892;28;20048;-81
2021/12/06 02:39:04;;;;;;;135.95;65.38;;;;;;;;;;5064938;28;20705;-83
2021/12/06 02:41:33;;;;;;;123.22;64.25;;;;;;;;;;5047588;28;20094;-81
2021/12/06 02:44:00;;;;;;;126.18;66.45;;;;;;;;;;5063415;28;20387;-84
2021/12/06 02:46:26;;;;;;;122.47;63.25;;;;;;;;;;5050304;28;20085;-80
2021/12/06 02:48:53;;;;;;;127.78;63.20;;;;;;;;;;5045510;28;20510;-82
2021/12/06 02:51:19;;;;;;;107.18;59.38;;;;;;;;;;5062195;28;20029;-85
2021/12/06 02:53:46;;;;;;;115.30;56.00;;;;;;;;;;5063199;28;20040;-81
2021/12/06 02:56:30;;;;;;;102.40;56.60;;;;;;;;;;5067103;28;20101;-80
2021/12/06 02:58:58;;;;;;;104.25;51.20;;;;;;;;;;5058853;28;20383;-80
2021/12/06 03:01:32;;;;;;;98.38;48.47;;;;;;;;;;5040739;28;20024;-81
2021/12/06 03:04:00;;;;;;;104.22;51.28;;;;;;;;;;5059121;28;20029;-80
2021/12/06 03:06:27;;;;;;;109.00;54.08;;;;;;;;;;5061080;28;20021;-81
2021/12/06 03:09:04;;;;;;;96.97;47.85;;;;;;;;;;5062021;28;20025;-82
2021/12/06 03:11:33;;;;;;;93.07;45.85;;;;;;;;;;5063949;28;21935;-81
2021/12/06 03:14:00;;;;;;;105.10;50.20;;;;;;;;;;5042101;28;20047;-81
2021/12/06 03:16:26;;;;;;;116.57;50.33;;;;;;;;;;5065254;28;20020;-82
2021/12/06 03:18:54;;;;;;;110.90;52.30;;;;;;;;;;5043089;28;20052;-82
2021/12/06 03:21:21;;;;;;;105.70;50.58;;;;;;;;;;5045596;28;20077;-81
2021/12/06 03:23:48;;;;;;;110.70;53.85;;;;;;;;;;5056390;28;20031;-81
2021/12/06 03:26:15;;;;;;;184.05;60.95;;;;;;;;;;5056373;28;20199;-82
2021/12/06 03:28:42;;;;;;;129.85;59.22;;;;;;;;;;5056579;28;20035;-83
2021/12/06 03:31:09;;;;;;;127.35;54.92;;;;;;;;;;5061616;28;20035;-83
2021/12/06 03:33:37;;;;;;;113.20;52.90;;;;;;;;;;5061876;28;20104;-81
2021/12/06 03:36:07;;;;;;;108.13;48.78;;;;;;;;;;5058920;28;20063;-82
2021/12/06 03:38:33;;;;;;;115.30;51.97;;;;;;;;;;5061910;28;20591;-83
2021/12/06 03:41:00;;;;;;;108.68;51.72;;;;;;;;;;5064385;28;20052;-82
2021/12/06 03:43:26;;;;;;;100.53;49.67;;;;;;;;;;5045400;28;20036;-82
2021/12/06 03:45:53;;;;;;;94.40;45.22;;;;;;;;;;5067343;28;20025;-82
2021/12/06 03:48:19;;;;;;;97.97;46.78;;;;;;;;;;5065577;28;20111;-83
2021/12/06 03:50:46;;;;;;;77.05;39.95;;;;;;;;;;5066310;28;20388;-82
2021/12/06 03:53:13;;;;;;;86.25;41.28;;;;;;;;;;5068232;28;20103;-84
2021/12/06 03:55:39;;;;;;;109.28;51.83;;;;;;;;;;5061074;28;20048;-84
2021/12/06 03:58:06;;;;;;;163.30;88.20;;;;;;;;;;5067708;28;20051;-82
2021/12/06 04:00:33;;;;;;;219.13;128.80;;;;;;;;;;5047997;28;20124;-82
2021/12/06 04:03:00;;;;;;;266.75;151.45;;;;;;;;;;5070842;28;20025;-81
2021/12/06 04:05:26;;;;;;;267.15;155.60;;;;;;;;;;5063098;28;20175;-82
2021/12/06 04:07:53;;;;;;;243.90;143.80;;;;;;;;;;5061632;28;20500;-83
2021/12/06 04:10:19;;;;;;;223.85;129.40;;;;;;;;;;5043027;28;20032;-81
2021/12/06 04:12:46;;;;;;;184.27;108.85;;;;;;;;;;5051062;28;20029;-83
2021/12/06 04:15:14;;;;;;;189.45;105.13;;;;;;;;;;5069287;28;20025;-84
2021/12/06 04:17:41;;;;;;;191.30;104.07;;;;;;;;;;5048323;28;20025;-84
2021/12/06 04:20:09;;;;;;;186.75;104.07;;;;;;;;;;5069144;28;20112;-82
2021/12/06 04:22:35;;;;;;;175.52;103.05;;;;;;;;;;5044138;28;20054;-82
2021/12/06 04:25:02;;;;;;;185.70;101.00;;;;;;;;;;5070652;28;20024;-80
2021/12/06 04:27:29;;;;;;;190.30;103.85;;;;;;;;;;5064404;28;20038;-83
2021/12/06 04:29:56;;;;;;;206.20;105.13;;;;;;;;;;5061829;28;20055;-82
2021/12/06 04:32:23;;;;;;;196.40;104.85;;;;;;;;;;5041559;28;20544;-83
2021/12/06 04:34:50;;;;;;;197.05;103.82;;;;;;;;;;5057649;28;20041;-83
2021/12/06 04:37:16;;;;;;;195.05;102.22;;;;;;;;;;5063159;28;20034;-82
2021/12/06 04:39:43;;;;;;;201.95;108.80;;;;;;;;;;5064428;28;20064;-81
2021/12/06 04:42:09;;;;;;;198.18;105.85;;;;;;;;;;5041922;28;20021;-83
2021/12/06 04:44:36;;;;;;;197.38;103.90;;;;;;;;;;5043277;28;20098;-84
2021/12/06 04:47:03;;;;;;;194.10;106.18;;;;;;;;;;5066929;28;20044;-84
2021/12/06 04:49:30;;;;;;;210.32;111.75;;;;;;;;;;5060794;28;20384;-83
2021/12/06 04:51:57;;;;;;;196.85;105.03;;;;;;;;;;5042804;28;20035;-83
2021/12/06 04:54:26;;;;;;;189.63;105.10;;;;;;;;;;5060395;28;20021;-83
2021/12/06 04:56:56;;;;;;;193.98;103.20;;;;;;;;;;5060716;28;20024;-87
2021/12/06 04:59:25;;;;;;;189.10;105.90;;;;;;;;;;5065492;28;20100;-84
2021/12/06 05:01:53;;;;;;;192.75;108.50;;;;;;;;;;5037458;28;20114;-82
2021/12/06 05:04:22;;;;;;;195.38;111.15;;;;;;;;;;5062969;28;20052;-83
2021/12/06 05:06:51;;;;;;;193.30;108.70;;;;;;;;;;5055300;28;20036;-85
2021/12/06 05:09:28;;;;;;;192.82;108.03;;;;;;;;;;5039608;28;20337;-83
2021/12/06 05:11:54;;;;;;;204.95;108.13;;;;;;;;;;5063189;28;20123;-83
2021/12/06 05:14:27;;;;;;;202.00;113.28;;;;;;;;;;5059666;28;20515;-83
2021/12/06 05:16:56;;;;;;;208.48;109.15;;;;;;;;;;5058722;28;20114;-82
2021/12/06 05:19:23;;;;;;;193.13;111.43;;;;;;;;;;5060604;28;20194;-84
2021/12/06 05:21:49;;;;;;;190.30;103.82;;;;;;;;;;5042650;28;20387;-81
2021/12/06 05:24:16;;;;;;;186.45;103.57;;;;;;;;;;5060241;28;20190;-81
2021/12/06 05:26:44;;;;;;;194.63;109.50;;;;;;;;;;5058674;28;20028;-82
2021/12/06 05:29:17;;;;;;;183.52;106.40;;;;;;;;;;5058100;28;20033;-83
2021/12/06 05:31:43;;;;;;;186.23;106.55;;;;;;;;;;5057812;28;20036;-83
2021/12/06 05:34:17;;;;;;;198.50;110.80;;;;;;;;;;5061031;28;20625;-83
2021/12/06 05:36:44;;;;;;;187.02;109.80;;;;;;;;;;5023686;28;20052;-84
2021/12/06 05:39:30;;;;;;;198.23;109.22;;;;;;;;;;5037693;28;20658;-84
2021/12/06 05:41:57;;;;;;;202.20;108.03;;;;;;;;;;5037137;28;20032;-82
2021/12/06 05:44:26;;;;;;;214.88;118.20;;;;;;;;;;5036728;28;20036;-84
2021/12/06 05:46:55;;;;;;;202.18;111.20;;;;;;;;;;5020657;28;20037;-84
2021/12/06 05:49:22;;;;;;;198.80;114.63;;;;;;;;;;5040023;28;20044;-84
2021/12/06 05:51:49;;;;;;;205.93;115.68;;;;;;;;;;5038867;28;20071;-83
2021/12/06 05:54:15;;;;;;;207.27;114.95;;;;;;;;;;5039458;28;20048;-84
2021/12/06 05:56:41;;;;;;;209.55;117.00;;;;;;;;;;5022714;28;20513;-83
2021/12/06 05:59:08;;;;;;;213.77;115.57;;;;;;;;;;5038137;28;20061;-83
2021/12/06 06:01:34;;;;;;;210.43;120.70;;;;;;;;;;5043355;28;20029;-83
2021/12/06 06:04:01;;;;;;;218.68;116.50;;;;;;;;;;5038091;28;20029;-84
2021/12/06 06:06:32;;;;;;;216.55;120.20;;;;;;;;;;5038882;28;20045;-83
2021/12/06 06:08:59;;;;;;;218.40;121.85;;;;;;;;;;5040087;28;20040;-83
2021/12/06 06:11:26;;;;;;;230.10;125.65;;;;;;;;;;5039022;28;20028;-83
2021/12/06 06:13:53;;;;;;;221.20;125.78;;;;;;;;;;5023074;28;20037;-86
2021/12/06 06:16:22;;;;;;;234.57;130.07;;;;;;;;;;5041210;28;20492;-84
2021/12/06 06:18:50;;;;;;;227.65;126.15;;;;;;;;;;5046510;28;20032;-82
2021/12/06 06:21:18;;;;;;;239.00;130.80;;;;;;;;;;5045310;28;20553;-82
2021/12/06 06:23:44;;;;;;;220.10;128.27;;;;;;;;;;5024297;28;20064;-82
2021/12/06 06:26:12;;;;;;;220.90;125.38;;;;;;;;;;5041901;28;20028;-84
2021/12/06 06:28:38;;;;;;;233.32;131.48;;;;;;;;;;5048523;28;20451;-82
2021/12/06 06:31:08;;;;;;;222.00;130.68;;;;;;;;;;5050875;28;20423;-83
2021/12/06 06:33:47;;;;;;;224.38;127.18;;;;;;;;;;5031254;28;20455;-84
2021/12/06 06:36:13;;;;;;;219.00;121.65;;;;;;;;;;5042946;28;20076;-82
2021/12/06 06:38:40;;;;;;;224.32;123.40;;;;;;;;;;5043903;28;20478;-84
2021/12/06 06:41:07;;;;;;;224.20;117.20;;;;;;;;;;5046030;28;20020;-84
2021/12/06 06:43:35;;;;;;;215.40;119.10;;;;;;;;;;5044722;28;20021;-84
2021/12/06 06:46:02;;;;;;;212.60;112.40;;;;;;;;;;5048176;28;20025;-84
2021/12/06 06:48:28;;;;;;;194.85;109.75;;;;;;;;;;5047847;28;20108;-82
2021/12/06 06:50:55;;;;;;;193.48;106.93;;;;;;;;;;5039670;28;20392;-84
2021/12/06 06:53:23;;;;;;;190.90;99.68;;;;;;;;;;5040258;28;20030;-84
2021/12/06 06:55:50;;;;;;;181.48;99.63;;;;;;;;;;5044941;28;20519;-84
2021/12/06 06:58:16;;;;;;;175.75;93.72;;;;;;;;;;5041721;28;20430;-84
2021/12/06 07:00:45;;;;;;;172.18;93.45;;;;;;;;;;5042048;28;20013;-84
2021/12/06 07:03:11;;;;;;;176.65;93.25;;;;;;;;;;5046553;28;20079;-84
2021/12/06 07:05:38;;;;;;;160.27;91.53;;;;;;;;;;5041755;28;20463;-84
2021/12/06 07:08:05;;;;;;;174.75;94.03;;;;;;;;;;5044560;28;20029;-83
2021/12/06 07:10:31;;;;;;;161.63;90.97;;;;;;;;;;5045596;28;20034;-83
2021/12/06 07:13:40;;;;;;;155.38;87.70;;;;;;;;;;5043872;28;20437;-84
2021/12/06 07:16:07;;;;;;;167.35;87.45;;;;;;;;;;5030904;28;20045;-83
2021/12/06 07:18:33;;;;;;;155.55;85.15;;;;;;;;;;5044339;28;20151;-84
2021/12/06 07:21:00;;;;;;;152.98;81.85;;;;;;;;;;5040280;28;20029;-85
2021/12/06 07:23:26;;;;;;;151.38;80.28;;;;;;;;;;5039367;28;20496;-84
2021/12/06 07:25:52;;;;;;;158.73;80.97;;;;;;;;;;5039865;28;20044;-83
2021/12/06 07:28:22;;;;;;;148.00;80.03;;;;;;;;;;5042502;28;20476;-84
2021/12/06 07:30:48;;;;;;;143.32;78.13;;;;;;;;;;5044431;28;20523;-83
2021/12/06 07:33:15;;;;;;;145.00;74.85;;;;;;;;;;5042913;28;20476;-83
2021/12/06 07:35:42;;;;;;;140.35;71.95;;;;;;;;;;5044820;28;20056;-85
2021/12/06 07:38:08;;;;;;;142.57;69.50;;;;;;;;;;5041415;28;20146;-83
2021/12/06 07:40:38;;;;;;;134.20;69.53;;;;;;;;;;5044141;28;20486;-82
2021/12/06 07:43:04;;;;;;;133.52;68.88;;;;;;;;;;5044832;28;20500;-85
2021/12/06 07:45:34;;;;;;;139.80;69.00;;;;;;;;;;5041481;28;20036;-82
2021/12/06 07:48:06;;;;;;;143.23;70.05;;;;;;;;;;5043860;28;20029;-83
2021/12/06 07:50:32;;;;;;;139.52;70.13;;;;;;;;;;5041108;28;20029;-82
2021/12/06 07:52:59;;;;;;;130.30;70.10;;;;;;;;;;5045744;28;20017;-81
2021/12/06 07:55:31;;;;;;;140.90;69.55;;;;;;;;;;5042975;28;20881;-83
2021/12/06 07:57:59;;;;;;;126.03;67.50;;;;;;;;;;5043187;28;20029;-81
2021/12/06 08:00:26;;;;;;;120.15;62.55;;;;;;;;;;5043204;28;20029;-85
2021/12/06 08:02:53;;;;;;;135.75;66.03;;;;;;;;;;5043252;28;20047;-83
2021/12/06 08:05:30;;;;;;;134.27;64.63;;;;;;;;;;5042875;28;20040;-82
2021/12/06 08:08:19;;;;;;;130.98;64.03;;;;;;;;;;5032114;28;20124;-84
2021/12/06 08:10:50;;;;;;;136.80;67.22;;;;;;;;;;5025455;28;20037;-84
2021/12/06 08:13:18;;;;;;;136.13;67.35;;;;;;;;;;5040716;28;20495;-83
2021/12/06 08:15:45;;;;;;;138.05;70.38;;;;;;;;;;5042166;28;20498;-82
2021/12/06 08:18:14;;;;;;;133.70;69.43;;;;;;;;;;5034540;28;20021;-80
2021/12/06 08:20:43;;;;;;;129.10;67.65;;;;;;;;;;5044081;28;20025;-83
2021/12/06 08:23:13;;;;;;;137.95;69.55;;;;;;;;;;5037602;28;20036;-82
2021/12/06 08:25:40;;;;;;;140.73;69.13;;;;;;;;;;5043242;28;20067;-82
2021/12/06 08:28:06;;;;;;;130.00;68.07;;;;;;;;;;5040167;28;20515;-82
2021/12/06 08:30:33;;;;;;;130.35;67.32;;;;;;;;;;5039524;28;20029;-84
2021/12/06 08:33:01;;;;;;;133.50;65.65;;;;;;;;;;5040462;28;20036;-82
2021/12/06 08:35:28;;;;;;;136.25;66.38;;;;;;;;;;5051456;28;20053;-82
2021/12/06 08:37:57;;;;;;;122.10;66.03;;;;;;;;;;5061897;28;20028;-82
2021/12/06 08:40:24;;;;;;;136.50;72.15;;;;;;;;;;5059778;28;20523;-82
2021/12/06 08:42:50;;;;;;;127.15;67.30;;;;;;;;;;5059100;28;20231;-82
2021/12/06 08:45:17;;;;;;;135.13;70.28;;;;;;;;;;5059506;28;20093;-81
2021/12/06 08:47:43;;;;;;;133.82;66.68;;;;;;;;;;5056072;28;20123;-83
2021/12/06 08:50:18;;;;;;;129.02;67.30;;;;;;;;;;5059282;28;20028;-80
2021/12/06 08:52:44;;;;;;;129.80;68.75;;;;;;;;;;5059300;28;20038;-81
2021/12/06 08:55:14;;;;;;;135.45;69.35;;;;;;;;;;5038665;28;20029;-81
2021/12/06 08:57:40;;;;;;;133.88;71.50;;;;;;;;;;5049071;28;20059;-83
2021/12/06 09:00:10;;;;;;;143.88;74.25;;;;;;;;;;5037161;28;20024;-82
2021/12/06 09:02:38;;;;;;;149.25;73.13;;;;;;;;;;5057563;28;20021;-82
2021/12/06 09:05:05;;;;;;;149.48;75.25;;;;;;;;;;5058059;28;20020;-84
2021/12/06 09:07:32;;;;;;;149.30;78.85;;;;;;;;;;5064190;28;20090;-81
2021/12/06 09:09:59;;;;;;;159.18;79.65;;;;;;;;;;5060028;28;20487;-84
2021/12/06 09:12:26;;;;;;;167.38;82.70;;;;;;;;;;5059654;28;20075;-82
2021/12/06 09:14:57;;;;;;;160.93;86.35;;;;;;;;;;5031028;28;20051;-81
2021/12/06 09:17:27;;;;;;;157.55;81.07;;;;;;;;;;5034859;28;20036;-82
2021/12/06 09:19:59;;;;;;;160.05;80.32;;;;;;;;;;5054693;28;20375;-82
2021/12/06 09:22:25;;;;;;;159.18;81.65;;;;;;;;;;5056951;28;20104;-82
2021/12/06 09:24:51;;;;;;;162.95;78.50;;;;;;;;;;5036602;28;20027;-82
2021/12/06 09:27:18;;;;;;;150.57;74.68;;;;;;;;;;5057000;28;20024;-81
2021/12/06 09:29:45;;;;;;;146.15;73.47;;;;;;;;;;5057060;28;20078;-82
2021/12/06 09:32:15;;;;;;;151.10;72.95;;;;;;;;;;5058266;28;20099;-82
2021/12/06 09:34:44;;;;;;;140.85;70.10;;;;;;;;;;5059085;28;20043;-81
2021/12/06 09:37:11;;;;;;;139.60;69.20;;;;;;;;;;5039521;28;20032;-84
2021/12/06 09:39:39;;;;;;;142.50;71.90;;;;;;;;;;5043385;28;20024;-81
2021/12/06 09:42:06;;;;;;;160.52;75.93;;;;;;;;;;5065055;28;20380;-81
2021/12/06 09:44:32;;;;;;;170.75;78.35;;;;;;;;;;5062953;28;20464;-80
2021/12/06 09:46:59;;;;;;;183.65;85.15;;;;;;;;;;5064514;28;20043;-82
2021/12/06 09:49:26;;;;;;;190.40;89.50;;;;;;;;;;5043089;28;20028;-85
2021/12/06 09:51:55;;;;;;;176.40;82.85;;;;;;;;;;5060182;28;20162;-82
2021/12/06 09:54:25;;;;;;;165.52;84.90;;;;;;;;;;5061770;28;20033;-82
2021/12/06 09:56:52;;;;;;;179.20;89.15;;;;;;;;;;5063600;28;20417;-83
2021/12/06 09:59:20;;;;;;;198.98;91.63;;;;;;;;;;5059792;28;20016;-82
2021/12/06 10:01:51;;;;;;;200.68;95.70;;;;;;;;;;5057299;28;20016;-82
2021/12/06 10:04:21;;;;;;;201.20;94.53;;;;;;;;;;5055865;28;20025;-82
2021/12/06 10:06:48;;;;;;;203.10;94.43;;;;;;;;;;5044835;28;20131;-83
2021/12/06 10:09:16;;;;;;;200.15;95.57;;;;;;;;;;5063472;28;20123;-81
2021/12/06 10:11:43;;;;;;;198.75;94.38;;;;;;;;;;5062666;28;20455;-82
2021/12/06 10:14:10;;;;;;;198.60;96.72;;;;;;;;;;5042822;28;20107;-82
2021/12/06 10:16:37;;;;;;;203.40;98.05;;;;;;;;;;5064900;28;20021;-82
2021/12/06 10:19:05;;;;;;;196.73;92.15;;;;;;;;;;5062647;28;20040;-82
2021/12/06 10:21:34;;;;;;;222.82;104.18;;;;;;;;;;5063185;28;20017;-83
2021/12/06 10:24:00;;;;;;;219.60;99.00;;;;;;;;;;5062628;28;20100;-82
2021/12/06 10:26:28;;;;;;;219.00;104.03;;;;;;;;;;5060861;28;20016;-80
2021/12/06 10:28:56;;;;;;;241.82;115.72;;;;;;;;;;5055972;28;20024;-82
2021/12/06 10:31:25;;;;;;;240.25;111.63;;;;;;;;;;5046100;28;20066;-82
2021/12/06 10:33:52;;;;;;;238.00;109.18;;;;;;;;;;5060656;28;20365;-84
2021/12/06 10:36:19;;;;;;;224.85;103.95;;;;;;;;;;5046594;28;20079;-82
2021/12/06 10:38:53;;;;;;;218.48;103.72;;;;;;;;;;5046513;28;20543;-83
2021/12/06 10:41:20;;;;;;;224.07;106.40;;;;;;;;;;5064715;28;20483;-83
2021/12/06 10:43:57;;;;;;;222.15;107.97;;;;;;;;;;5046142;28;20069;-83
2021/12/06 10:46:25;;;;;;;237.38;113.20;;;;;;;;;;5059511;28;20555;-81
2021/12/06 10:48:53;;;;;;;236.75;113.10;;;;;;;;;;5060546;28;20040;-81
2021/12/06 10:51:20;;;;;;;233.90;112.63;;;;;;;;;;5070977;28;20020;-83
2021/12/06 10:53:51;;;;;;;225.40;110.65;;;;;;;;;;5063525;28;20032;-83
2021/12/06 10:56:22;;;;;;;241.20;111.95;;;;;;;;;;5064866;28;20561;-83
2021/12/06 10:58:50;;;;;;;238.25;113.72;;;;;;;;;;5046441;28;20264;-82
2021/12/06 11:01:39;;;;;;;213.82;103.90;;;;;;;;;;5054982;28;20039;-82
2021/12/06 11:04:07;;;;;;;222.95;106.85;;;;;;;;;;5065591;28;20155;-82
2021/12/06 11:06:41;;;;;;;224.23;105.97;;;;;;;;;;5060135;28;20029;-83
2021/12/06 11:09:07;;;;;;;207.82;103.13;;;;;;;;;;5043679;28;20131;-82
2021/12/06 11:11:38;;;;;;;210.45;101.85;;;;;;;;;;5059309;28;20050;-81
2021/12/06 11:14:07;;;;;;;203.55;99.00;;;;;;;;;;5041425;28;20446;-81
2021/12/06 11:16:38;;;;;;;207.10;100.40;;;;;;;;;;5045700;28;20825;-83
2021/12/06 11:19:12;;;;;;;198.93;98.63;;;;;;;;;;5061832;28;20021;-81
2021/12/06 11:21:43;;;;;;;197.68;93.80;;;;;;;;;;5059157;28;20028;-83
2021/12/06 11:24:12;;;;;;;200.88;92.50;;;;;;;;;;5058634;28;20052;-81
2021/12/06 11:26:50;;;;;;;190.18;91.80;;;;;;;;;;5043107;28;20111;-82
2021/12/06 11:29:37;;;;;;;195.60;92.78;;;;;;;;;;5063327;28;20028;-83
2021/12/06 11:32:22;;;;;;;195.27;91.07;;;;;;;;;;5058302;28;20033;-82
2021/12/06 11:34:57;;;;;;;195.57;89.25;;;;;;;;;;5067060;28;20049;-83
2021/12/06 11:38:15;;;;;;;184.52;87.72;;;;;;;;;;5064000;28;20032;-82
2021/12/06 11:47:01;;;;;;;173.32;81.65;;;;;;;;;;4955216;28;20521;-82
2021/12/06 11:49:29;;;;;;;174.70;84.30;;;;;;;;;;5042303;28;20127;-82
2021/12/06 11:51:56;;;;;;;179.25;83.03;;;;;;;;;;5059281;28;20036;-83
2021/12/06 11:54:22;;;;;;;181.00;86.45;;;;;;;;;;5060909;28;20024;-82
2021/12/06 11:56:51;;;;;;;187.02;87.03;;;;;;;;;;5063062;28;20033;-82
2021/12/06 11:59:18;;;;;;;175.02;81.40;;;;;;;;;;5059903;28;20383;-83
2021/12/06 12:02:22;;;;;;;188.27;86.32;;;;;;;;;;5044513;28;20059;-82
2021/12/06 12:04:49;;;;;;;182.20;84.28;;;;;;;;;;5058344;28;20105;-83
2021/12/06 12:07:15;;;;;;;179.95;82.88;;;;;;;;;;5061898;28;20031;-82
2021/12/06 12:09:41;;;;;;;183.52;84.00;;;;;;;;;;5040433;28;20033;-84
2021/12/06 12:12:13;;;;;;;179.50;86.28;;;;;;;;;;5062377;28;20439;-83
2021/12/06 12:14:45;;;;;;;176.70;87.93;;;;;;;;;;5043349;28;20029;-83
2021/12/06 12:17:31;;;;;;;189.57;85.63;;;;;;;;;;5043781;28;20028;-82
2021/12/06 12:20:01;;;;;;;183.90;82.47;;;;;;;;;;5063318;28;20028;-83
2021/12/06 12:22:29;;;;;;;177.77;84.72;;;;;;;;;;5063898;28;20040;-83
2021/12/06 12:25:01;;;;;;;178.52;85.05;;;;;;;;;;5061581;28;20028;-82
2021/12/06 12:27:36;;;;;;;169.55;81.60;;;;;;;;;;5066027;28;20052;-83
2021/12/06 12:30:03;;;;;;;169.93;80.88;;;;;;;;;;5067593;28;20493;-83
2021/12/06 12:32:32;;;;;;;178.07;84.05;;;;;;;;;;5049728;28;20075;-83
2021/12/06 12:35:00;;;;;;;174.52;81.85;;;;;;;;;;5061296;28;20037;-83
2021/12/06 12:37:27;;;;;;;167.70;81.65;;;;;;;;;;5067740;28;20431;-82
2021/12/06 12:39:59;;;;;;;171.82;83.13;;;;;;;;;;5064555;28;20044;-83
2021/12/06 12:42:26;;;;;;;189.55;91.63;;;;;;;;;;5063222;28;20028;-83
2021/12/06 12:44:54;;;;;;;186.60;93.10;;;;;;;;;;5066327;28;20424;-84
2021/12/06 12:47:23;;;;;;;196.13;92.10;;;;;;;;;;5071803;28;20139;-83
2021/12/06 12:49:52;;;;;;;197.88;91.25;;;;;;;;;;5064036;28;20116;-83
2021/12/06 12:52:59;;;;;;;178.52;85.65;;;;;;;;;;5066095;28;20024;-83
2021/12/06 12:55:31;;;;;;;172.00;88.82;;;;;;;;;;4982745;28;20044;-84
2021/12/06 12:58:14;;;;;;;173.00;85.85;;;;;;;;;;5049267;28;20040;-83
2021/12/06 13:00:57;;;;;;;183.13;84.90;;;;;;;;;;5067296;28;20385;-81
2021/12/06 13:03:39;;;;;;;167.35;84.07;;;;;;;;;;5066551;28;20515;-81
2021/12/06 13:06:16;;;;;;;161.23;80.57;;;;;;;;;;5058410;28;20040;-82
2021/12/06 13:08:43;;;;;;;170.98;81.00;;;;;;;;;;5073199;28;20024;-81
2021/12/06 13:11:09;;;;;;;171.75;76.82;;;;;;;;;;5071010;28;20107;-81
2021/12/06 13:13:43;;;;;;;149.55;70.97;;;;;;;;;;5061772;28;20423;-82
2021/12/06 13:16:38;;;;;;;149.50;73.25;;;;;;;;;;5066673;28;20027;-83
2021/12/06 13:19:22;;;;;;;153.27;72.40;;;;;;;;;;5066638;28;20036;-83
2021/12/06 13:21:56;;;;;;;149.40;68.57;;;;;;;;;;5053503;28;20021;-82
2021/12/06 13:24:23;;;;;;;151.55;70.22;;;;;;;;;;5062257;28;20460;-83
2021/12/06 13:26:50;;;;;;;154.27;78.47;;;;;;;;;;5067403;28;20029;-82
2021/12/06 13:29:18;;;;;;;144.35;74.40;;;;;;;;;;5063041;28;20108;-80
2021/12/06 13:31:45;;;;;;;151.50;71.30;;;;;;;;;;5039542;28;20033;-83
2021/12/06 13:34:17;;;;;;;148.48;72.60;;;;;;;;;;5063861;28;20378;-82
2021/12/06 13:36:44;;;;;;;140.30;69.70;;;;;;;;;;5044987;28;20036;-82
2021/12/06 13:39:30;;;;;;;145.55;68.53;;;;;;;;;;5048023;28;20033;-82
2021/12/06 13:41:57;;;;;;;147.68;69.88;;;;;;;;;;5046539;28;20037;-83
2021/12/06 13:44:37;;;;;;;151.00;72.80;;;;;;;;;;5076875;28;20036;-82
2021/12/06 13:47:08;;;;;;;159.65;76.45;;;;;;;;;;5044131;28;20391;-81
2021/12/06 13:49:35;;;;;;;168.30;77.80;;;;;;;;;;5068827;28;20037;-80
2021/12/06 13:52:03;;;;;;;155.45;77.03;;;;;;;;;;5068275;28;20082;-83
2021/12/06 13:54:31;;;;;;;147.10;72.05;;;;;;;;;;5066617;28;20128;-82
2021/12/06 13:57:02;;;;;;;138.77;68.47;;;;;;;;;;5067452;28;20024;-81
2021/12/06 13:59:32;;;;;;;131.38;67.00;;;;;;;;;;5067463;28;20035;-83
2021/12/06 14:02:06;;;;;;;138.70;67.20;;;;;;;;;;5063879;28;20024;-81
2021/12/06 14:04:43;;;;;;;147.75;72.05;;;;;;;;;;5057874;28;20030;-81
2021/12/06 14:07:10;;;;;;;157.98;75.28;;;;;;;;;;5064925;28;20384;-82
2021/12/06 14:09:38;;;;;;;172.63;88.85;;;;;;;;;;5062018;28;20029;-81
2021/12/06 14:12:06;;;;;;;189.27;96.05;;;;;;;;;;5058667;28;20041;-82
2021/12/06 14:14:37;;;;;;;193.68;98.78;;;;;;;;;;5070375;28;20036;-83
2021/12/06 14:17:07;;;;;;;223.50;108.80;;;;;;;;;;5060899;28;21462;-81
2021/12/06 14:19:34;;;;;;;228.90;119.80;;;;;;;;;;5058974;28;20032;-81
2021/12/06 14:22:01;;;;;;;237.75;118.68;;;;;;;;;;5065840;28;20029;-81
2021/12/06 14:24:29;;;;;;;224.63;113.18;;;;;;;;;;5063653;28;20031;-81
2021/12/06 14:26:56;;;;;;;217.13;111.05;;;;;;;;;;5050533;28;20036;-82
2021/12/06 14:29:33;;;;;;;209.00;110.55;;;;;;;;;;5074875;28;20140;-82
2021/12/06 14:32:01;;;;;;;214.45;110.13;;;;;;;;;;5076308;28;20424;-82